sensor_id;sensor_type;location;lat;lon;timestamp;temperature;humidity
6054;DHT22;3055;50.886;14.814;2023-05-07T00:01:42;9.90;99.90
6054;DHT22;3055;50.886;14.814;2023-05-07T00:04:10;9.90;99.90
6054;DHT22;3055;50.886;14.814;2023-05-07T00:06:39;9.90;99.90
6054;DHT22;3055;50.886;14.814;2023-05-07T00:09:06;9.80;99.90
6054;DHT22;3055;50.886;14.814;2023-05-07T00:11:34;9.90;99.90
6054;DHT22;3055;50.886;14.814;2023-05-07T00:14:04;9.80;99.90
6054;DHT22;3055;50.886;14.814;2023-05-07T00:16:31;9.80;99.90
6054;DHT22;3055;50.886;14.814;2023-05-07T00:18:58;9.70;99.90
6054;DHT22;3055;50.886;14.814;2023-05-07T00:21:26;9.70;99.90
6054;DHT22;3055;50.886;14.814;2023-05-07T00:23:53;9.70;99.90
6054;DHT22;3055;50.886;14.814;2023-05-07T00:26:21;9.70;99.90
6054;DHT22;3055;50.886;14.814;2023-05-07T00:28:48;9.60;99.90
6054;DHT22;3055;50.886;14.814;2023-05-07T00:31:15;9.60;99.90
6054;DHT22;3055;50.886;14.814;2023-05-07T00:33:42;9.60;99.90
6054;DHT22;3055;50.886;14.814;2023-05-07T00:36:09;9.60;99.90
6054;DHT22;3055;50.886;14.814;2023-05-07T00:38:38;9.50;99.90
6054;DHT22;3055;50.886;14.814;2023-05-07T00:41:05;9.50;99.90
6054;DHT22;3055;50.886;14.814;2023-05-07T00:43:32;9.50;99.90
6054;DHT22;3055;50.886;14.814;2023-05-07T00:45:59;9.50;99.90
6054;DHT22;3055;50.886;14.814;2023-05-07T00:48:26;9.50;99.90
6054;DHT22;3055;50.886;14.814;2023-05-07T00:50:54;9.60;99.90
6054;DHT22;3055;50.886;14.814;2023-05-07T00:53:21;9.60;99.90
6054;DHT22;3055;50.886;14.814;2023-05-07T00:55:50;9.50;99.90
6054;DHT22;3055;50.886;14.814;2023-05-07T00:58:17;9.50;99.90
6054;DHT22;3055;50.886;14.814;2023-05-07T01:00:44;9.40;99.90
6054;DHT22;3055;50.886;14.814;2023-05-07T01:03:14;9.40;99.90
6054;DHT22;3055;50.886;14.814;2023-05-07T01:05:42;9.40;99.90
6054;DHT22;3055;50.886;14.814;2023-05-07T01:08:10;9.40;99.90
6054;DHT22;3055;50.886;14.814;2023-05-07T01:10:37;9.40;99.90
6054;DHT22;3055;50.886;14.814;2023-05-07T01:13:10;9.30;99.90
6054;DHT22;3055;50.886;14.814;2023-05-07T01:15:38;9.30;99.90
6054;DHT22;3055;50.886;14.814;2023-05-07T01:18:06;9.30;99.90
6054;DHT22;3055;50.886;14.814;2023-05-07T01:20:33;9.30;99.90
6054;DHT22;3055;50.886;14.814;2023-05-07T01:23:03;9.30;99.90
6054;DHT22;3055;50.886;14.814;2023-05-07T01:25:31;9.30;99.90
6054;DHT22;3055;50.886;14.814;2023-05-07T01:27:58;9.40;99.90
6054;DHT22;3055;50.886;14.814;2023-05-07T01:30:29;9.40;99.90
6054;DHT22;3055;50.886;14.814;2023-05-07T01:33:01;9.40;99.90
6054;DHT22;3055;50.886;14.814;2023-05-07T01:35:34;9.40;99.90
6054;DHT22;3055;50.886;14.814;2023-05-07T01:38:04;9.30;99.90
6054;DHT22;3055;50.886;14.814;2023-05-07T01:40:31;9.40;99.90
6054;DHT22;3055;50.886;14.814;2023-05-07T01:43:00;9.40;99.90
6054;DHT22;3055;50.886;14.814;2023-05-07T01:45:28;9.30;99.90
6054;DHT22;3055;50.886;14.814;2023-05-07T01:47:55;9.40;99.90
6054;DHT22;3055;50.886;14.814;2023-05-07T01:50:23;9.40;99.90
6054;DHT22;3055;50.886;14.814;2023-05-07T01:52:51;9.40;99.90
6054;DHT22;3055;50.886;14.814;2023-05-07T01:55:20;9.40;99.90
6054;DHT22;3055;50.886;14.814;2023-05-07T01:57:47;9.40;99.90
6054;DHT22;3055;50.886;14.814;2023-05-07T02:00:14;9.30;99.90
6054;DHT22;3055;50.886;14.814;2023-05-07T02:02:41;9.30;99.90
6054;DHT22;3055;50.886;14.814;2023-05-07T02:05:09;9.30;99.90
6054;DHT22;3055;50.886;14.814;2023-05-07T02:07:36;9.30;99.90
6054;DHT22;3055;50.886;14.814;2023-05-07T02:10:03;9.30;99.90
6054;DHT22;3055;50.886;14.814;2023-05-07T02:12:32;9.30;99.90
6054;DHT22;3055;50.886;14.814;2023-05-07T02:14:59;9.20;99.90
6054;DHT22;3055;50.886;14.814;2023-05-07T02:17:26;9.20;99.90
6054;DHT22;3055;50.886;14.814;2023-05-07T02:19:53;9.30;99.90
6054;DHT22;3055;50.886;14.814;2023-05-07T02:22:20;9.30;99.90
6054;DHT22;3055;50.886;14.814;2023-05-07T02:24:47;9.30;99.90
6054;DHT22;3055;50.886;14.814;2023-05-07T02:27:14;9.30;99.90
6054;DHT22;3055;50.886;14.814;2023-05-07T02:29:43;9.20;99.90
6054;DHT22;3055;50.886;14.814;2023-05-07T02:32:10;9.20;99.90
6054;DHT22;3055;50.886;14.814;2023-05-07T02:34:37;9.10;99.90
6054;DHT22;3055;50.886;14.814;2023-05-07T02:37:04;9.10;99.90
6054;DHT22;3055;50.886;14.814;2023-05-07T02:39:31;9.10;99.90
6054;DHT22;3055;50.886;14.814;2023-05-07T02:41:58;9.10;99.90
6054;DHT22;3055;50.886;14.814;2023-05-07T02:44:25;9.10;99.90
6054;DHT22;3055;50.886;14.814;2023-05-07T02:46:53;9.10;99.90
6054;DHT22;3055;50.886;14.814;2023-05-07T02:49:21;9.10;99.90
6054;DHT22;3055;50.886;14.814;2023-05-07T02:51:48;9.10;99.90
6054;DHT22;3055;50.886;14.814;2023-05-07T02:54:15;9.10;99.90
6054;DHT22;3055;50.886;14.814;2023-05-07T02:56:43;9.10;99.90
6054;DHT22;3055;50.886;14.814;2023-05-07T02:59:10;9.10;99.90
6054;DHT22;3055;50.886;14.814;2023-05-07T03:01:37;9.00;99.90
6054;DHT22;3055;50.886;14.814;2023-05-07T03:04:05;9.00;99.90
6054;DHT22;3055;50.886;14.814;2023-05-07T03:06:32;9.00;99.90
6054;DHT22;3055;50.886;14.814;2023-05-07T03:08:59;9.00;99.90
6054;DHT22;3055;50.886;14.814;2023-05-07T03:11:27;9.00;99.90
6054;DHT22;3055;50.886;14.814;2023-05-07T03:13:54;9.00;99.90
6054;DHT22;3055;50.886;14.814;2023-05-07T03:16:21;9.10;99.90
6054;DHT22;3055;50.886;14.814;2023-05-07T03:18:48;9.00;99.90
6054;DHT22;3055;50.886;14.814;2023-05-07T03:21:17;9.00;99.90
6054;DHT22;3055;50.886;14.814;2023-05-07T03:23:44;9.00;99.90
6054;DHT22;3055;50.886;14.814;2023-05-07T03:26:11;9.00;99.90
6054;DHT22;3055;50.886;14.814;2023-05-07T03:28:38;9.00;99.90
6054;DHT22;3055;50.886;14.814;2023-05-07T03:31:05;9.00;99.90
6054;DHT22;3055;50.886;14.814;2023-05-07T03:33:33;9.00;99.90
6054;DHT22;3055;50.886;14.814;2023-05-07T03:36:01;9.00;99.90
6054;DHT22;3055;50.886;14.814;2023-05-07T03:38:29;9.00;99.90
6054;DHT22;3055;50.886;14.814;2023-05-07T03:40:56;9.00;99.90
6054;DHT22;3055;50.886;14.814;2023-05-07T03:43:23;9.00;99.90
6054;DHT22;3055;50.886;14.814;2023-05-07T03:45:50;9.00;99.90
6054;DHT22;3055;50.886;14.814;2023-05-07T03:48:17;9.00;99.90
6054;DHT22;3055;50.886;14.814;2023-05-07T03:50:44;8.90;99.90
6054;DHT22;3055;50.886;14.814;2023-05-07T03:53:12;8.90;99.90
6054;DHT22;3055;50.886;14.814;2023-05-07T03:55:40;8.90;99.90
6054;DHT22;3055;50.886;14.814;2023-05-07T03:58:08;8.90;99.90
6054;DHT22;3055;50.886;14.814;2023-05-07T04:00:35;8.90;99.90
6054;DHT22;3055;50.886;14.814;2023-05-07T04:03:03;8.90;99.90
6054;DHT22;3055;50.886;14.814;2023-05-07T04:05:31;8.90;99.90
6054;DHT22;3055;50.886;14.814;2023-05-07T04:07:58;8.90;99.90
6054;DHT22;3055;50.886;14.814;2023-05-07T04:10:25;8.90;99.90
6054;DHT22;3055;50.886;14.814;2023-05-07T04:12:55;8.90;99.90
6054;DHT22;3055;50.886;14.814;2023-05-07T04:15:22;8.80;99.90
6054;DHT22;3055;50.886;14.814;2023-05-07T04:17:49;8.90;99.90
6054;DHT22;3055;50.886;14.814;2023-05-07T04:20:17;8.90;99.90
6054;DHT22;3055;50.886;14.814;2023-05-07T04:22:44;8.90;99.90
6054;DHT22;3055;50.886;14.814;2023-05-07T04:25:11;8.90;99.90
6054;DHT22;3055;50.886;14.814;2023-05-07T04:27:38;8.90;99.90
6054;DHT22;3055;50.886;14.814;2023-05-07T04:30:08;9.00;99.90
6054;DHT22;3055;50.886;14.814;2023-05-07T04:32:35;9.00;99.90
6054;DHT22;3055;50.886;14.814;2023-05-07T04:35:03;9.00;99.90
6054;DHT22;3055;50.886;14.814;2023-05-07T04:37:32;9.00;99.90
6054;DHT22;3055;50.886;14.814;2023-05-07T04:39:59;9.00;99.90
6054;DHT22;3055;50.886;14.814;2023-05-07T04:42:26;9.00;99.90
6054;DHT22;3055;50.886;14.814;2023-05-07T04:44:53;8.90;99.90
6054;DHT22;3055;50.886;14.814;2023-05-07T04:47:22;8.90;99.90
6054;DHT22;3055;50.886;14.814;2023-05-07T04:49:49;8.90;99.90
6054;DHT22;3055;50.886;14.814;2023-05-07T04:52:16;8.90;99.90
6054;DHT22;3055;50.886;14.814;2023-05-07T04:54:43;8.90;99.90
6054;DHT22;3055;50.886;14.814;2023-05-07T04:57:10;8.90;99.90
6054;DHT22;3055;50.886;14.814;2023-05-07T04:59:37;8.90;99.90
6054;DHT22;3055;50.886;14.814;2023-05-07T05:02:04;8.90;99.90
6054;DHT22;3055;50.886;14.814;2023-05-07T05:04:33;9.00;99.90
6054;DHT22;3055;50.886;14.814;2023-05-07T05:07:00;9.00;99.90
6054;DHT22;3055;50.886;14.814;2023-05-07T05:09:29;9.00;99.90
6054;DHT22;3055;50.886;14.814;2023-05-07T05:11:56;9.10;99.90
6054;DHT22;3055;50.886;14.814;2023-05-07T05:14:23;9.10;99.90
6054;DHT22;3055;50.886;14.814;2023-05-07T05:16:50;9.10;99.90
6054;DHT22;3055;50.886;14.814;2023-05-07T05:19:17;9.20;99.90
6054;DHT22;3055;50.886;14.814;2023-05-07T05:21:46;9.30;99.90
6054;DHT22;3055;50.886;14.814;2023-05-07T05:24:13;9.30;99.90
6054;DHT22;3055;50.886;14.814;2023-05-07T05:26:40;9.30;99.90
6054;DHT22;3055;50.886;14.814;2023-05-07T05:29:07;9.30;99.90
6054;DHT22;3055;50.886;14.814;2023-05-07T05:31:34;9.40;99.90
6054;DHT22;3055;50.886;14.814;2023-05-07T05:34:02;9.40;99.90
6054;DHT22;3055;50.886;14.814;2023-05-07T05:36:29;9.50;99.90
6054;DHT22;3055;50.886;14.814;2023-05-07T05:38:58;9.60;99.90
6054;DHT22;3055;50.886;14.814;2023-05-07T05:41:25;9.70;99.90
6054;DHT22;3055;50.886;14.814;2023-05-07T05:43:52;9.70;99.90
6054;DHT22;3055;50.886;14.814;2023-05-07T05:46:19;9.80;99.90
6054;DHT22;3055;50.886;14.814;2023-05-07T05:48:47;9.80;99.90
6054;DHT22;3055;50.886;14.814;2023-05-07T05:51:14;9.80;99.90
6054;DHT22;3055;50.886;14.814;2023-05-07T05:53:41;9.80;99.90
6054;DHT22;3055;50.886;14.814;2023-05-07T05:56:09;9.80;99.90
6054;DHT22;3055;50.886;14.814;2023-05-07T05:58:36;9.80;99.90
6054;DHT22;3055;50.886;14.814;2023-05-07T06:01:03;9.80;99.90
6054;DHT22;3055;50.886;14.814;2023-05-07T06:03:31;9.80;99.90
6054;DHT22;3055;50.886;14.814;2023-05-07T06:05:58;9.90;99.90
6054;DHT22;3055;50.886;14.814;2023-05-07T06:08:29;10.00;99.90
6054;DHT22;3055;50.886;14.814;2023-05-07T06:10:56;9.90;99.90
6054;DHT22;3055;50.886;14.814;2023-05-07T06:13:25;9.90;99.90
6054;DHT22;3055;50.886;14.814;2023-05-07T06:15:52;10.00;99.90
6054;DHT22;3055;50.886;14.814;2023-05-07T06:18:19;10.00;99.90
6054;DHT22;3055;50.886;14.814;2023-05-07T06:20:46;10.10;99.90
6054;DHT22;3055;50.886;14.814;2023-05-07T06:23:14;10.00;99.90
6054;DHT22;3055;50.886;14.814;2023-05-07T06:25:41;10.00;99.90
6054;DHT22;3055;50.886;14.814;2023-05-07T06:28:08;9.90;99.90
6054;DHT22;3055;50.886;14.814;2023-05-07T06:30:38;10.00;99.90
6054;DHT22;3055;50.886;14.814;2023-05-07T06:33:05;10.10;99.90
6054;DHT22;3055;50.886;14.814;2023-05-07T06:35:32;10.30;99.90
6054;DHT22;3055;50.886;14.814;2023-05-07T06:38:00;10.30;99.90
6054;DHT22;3055;50.886;14.814;2023-05-07T06:40:27;10.30;96.70
6054;DHT22;3055;50.886;14.814;2023-05-07T06:42:54;10.40;98.00
6054;DHT22;3055;50.886;14.814;2023-05-07T06:45:21;10.40;82.40
6054;DHT22;3055;50.886;14.814;2023-05-07T06:47:50;10.50;77.90
6054;DHT22;3055;50.886;14.814;2023-05-07T06:50:17;10.60;77.00
6054;DHT22;3055;50.886;14.814;2023-05-07T06:52:44;10.70;86.80
6054;DHT22;3055;50.886;14.814;2023-05-07T06:55:12;10.70;50.20
6054;DHT22;3055;50.886;14.814;2023-05-07T06:57:39;10.80;47.80
6054;DHT22;3055;50.886;14.814;2023-05-07T07:00:06;10.70;45.60
6054;DHT22;3055;50.886;14.814;2023-05-07T07:02:34;10.80;53.90
6054;DHT22;3055;50.886;14.814;2023-05-07T07:05:03;10.90;28.10
6054;DHT22;3055;50.886;14.814;2023-05-07T07:07:30;11.00;28.20
6054;DHT22;3055;50.886;14.814;2023-05-07T07:09:57;11.30;8.00
6054;DHT22;3055;50.886;14.814;2023-05-07T07:12:24;11.40;1.00
6054;DHT22;3055;50.886;14.814;2023-05-07T07:14:51;11.40;1.00
6054;DHT22;3055;50.886;14.814;2023-05-07T07:17:18;11.30;1.00
6054;DHT22;3055;50.886;14.814;2023-05-07T07:19:45;11.40;1.00
6054;DHT22;3055;50.886;14.814;2023-05-07T07:22:14;11.40;1.00
6054;DHT22;3055;50.886;14.814;2023-05-07T07:24:41;11.50;1.00
6054;DHT22;3055;50.886;14.814;2023-05-07T07:27:08;11.70;1.00
6054;DHT22;3055;50.886;14.814;2023-05-07T07:29:35;11.60;1.00
6054;DHT22;3055;50.886;14.814;2023-05-07T07:32:02;11.60;1.00
6054;DHT22;3055;50.886;14.814;2023-05-07T07:34:29;11.70;99.90
6054;DHT22;3055;50.886;14.814;2023-05-07T07:36:56;11.80;99.90
6054;DHT22;3055;50.886;14.814;2023-05-07T07:39:24;11.90;99.90
6054;DHT22;3055;50.886;14.814;2023-05-07T07:41:51;11.80;41.80
6054;DHT22;3055;50.886;14.814;2023-05-07T07:44:19;11.80;99.90
6054;DHT22;3055;50.886;14.814;2023-05-07T07:46:46;11.90;99.90
6054;DHT22;3055;50.886;14.814;2023-05-07T07:49:13;11.80;1.00
6054;DHT22;3055;50.886;14.814;2023-05-07T07:51:40;11.60;1.00
6054;DHT22;3055;50.886;14.814;2023-05-07T07:54:08;11.40;1.00
6054;DHT22;3055;50.886;14.814;2023-05-07T07:56:36;11.30;67.50
6054;DHT22;3055;50.886;14.814;2023-05-07T07:59:03;11.50;23.10
6054;DHT22;3055;50.886;14.814;2023-05-07T08:01:31;11.60;1.00
6054;DHT22;3055;50.886;14.814;2023-05-07T08:03:58;11.70;1.00
6054;DHT22;3055;50.886;14.814;2023-05-07T08:06:25;11.60;1.00
6054;DHT22;3055;50.886;14.814;2023-05-07T08:08:52;11.60;1.00
6054;DHT22;3055;50.886;14.814;2023-05-07T08:11:20;11.80;1.00
6054;DHT22;3055;50.886;14.814;2023-05-07T08:13:48;12.00;1.00
6054;DHT22;3055;50.886;14.814;2023-05-07T08:16:15;12.10;1.00
6054;DHT22;3055;50.886;14.814;2023-05-07T08:18:42;12.20;1.00
6054;DHT22;3055;50.886;14.814;2023-05-07T08:21:10;12.20;1.00
6054;DHT22;3055;50.886;14.814;2023-05-07T08:23:37;12.20;1.00
6054;DHT22;3055;50.886;14.814;2023-05-07T08:26:04;12.20;1.00
6054;DHT22;3055;50.886;14.814;2023-05-07T08:28:39;12.20;1.00
6054;DHT22;3055;50.886;14.814;2023-05-07T08:31:06;12.40;1.00
6054;DHT22;3055;50.886;14.814;2023-05-07T08:33:33;12.60;1.00
6054;DHT22;3055;50.886;14.814;2023-05-07T08:36:00;12.70;99.90
6054;DHT22;3055;50.886;14.814;2023-05-07T08:38:27;12.80;99.90
6054;DHT22;3055;50.886;14.814;2023-05-07T08:40:54;13.00;99.90
6054;DHT22;3055;50.886;14.814;2023-05-07T08:43:21;13.10;99.90
6054;DHT22;3055;50.886;14.814;2023-05-07T08:45:55;13.00;99.90
6054;DHT22;3055;50.886;14.814;2023-05-07T08:48:25;13.20;99.90
6054;DHT22;3055;50.886;14.814;2023-05-07T08:50:54;13.10;99.90
6054;DHT22;3055;50.886;14.814;2023-05-07T08:53:21;12.90;99.90
6054;DHT22;3055;50.886;14.814;2023-05-07T08:55:48;12.50;99.90
6054;DHT22;3055;50.886;14.814;2023-05-07T08:58:15;12.30;99.90
6054;DHT22;3055;50.886;14.814;2023-05-07T09:00:42;12.20;99.90
6054;DHT22;3055;50.886;14.814;2023-05-07T09:03:11;12.00;99.90
6054;DHT22;3055;50.886;14.814;2023-05-07T09:05:39;12.10;99.90
6054;DHT22;3055;50.886;14.814;2023-05-07T09:08:07;12.30;99.90
6054;DHT22;3055;50.886;14.814;2023-05-07T09:10:34;12.50;99.90
6054;DHT22;3055;50.886;14.814;2023-05-07T09:13:02;12.50;99.90
6054;DHT22;3055;50.886;14.814;2023-05-07T09:15:29;12.40;99.90
6054;DHT22;3055;50.886;14.814;2023-05-07T09:17:59;12.50;99.90
6054;DHT22;3055;50.886;14.814;2023-05-07T09:20:30;12.80;99.90
6054;DHT22;3055;50.886;14.814;2023-05-07T09:22:57;13.20;99.90
6054;DHT22;3055;50.886;14.814;2023-05-07T09:25:31;13.30;99.90
6054;DHT22;3055;50.886;14.814;2023-05-07T09:27:59;13.50;99.90
6054;DHT22;3055;50.886;14.814;2023-05-07T09:30:28;13.60;99.90
6054;DHT22;3055;50.886;14.814;2023-05-07T09:32:57;13.50;99.90
6054;DHT22;3055;50.886;14.814;2023-05-07T09:35:25;13.70;99.90
6054;DHT22;3055;50.886;14.814;2023-05-07T09:37:55;13.90;99.90
6054;DHT22;3055;50.886;14.814;2023-05-07T09:40:23;14.10;99.90
6054;DHT22;3055;50.886;14.814;2023-05-07T09:42:51;14.50;99.90
6054;DHT22;3055;50.886;14.814;2023-05-07T09:45:22;14.80;99.90
6054;DHT22;3055;50.886;14.814;2023-05-07T09:47:54;15.00;99.90
6054;DHT22;3055;50.886;14.814;2023-05-07T09:50:26;15.20;99.90
6054;DHT22;3055;50.886;14.814;2023-05-07T09:52:55;15.00;99.90
6054;DHT22;3055;50.886;14.814;2023-05-07T09:55:23;14.90;93.30
6054;DHT22;3055;50.886;14.814;2023-05-07T09:57:51;14.90;81.40
6054;DHT22;3055;50.886;14.814;2023-05-07T10:00:19;15.00;77.50
6054;DHT22;3055;50.886;14.814;2023-05-07T10:02:47;15.20;84.50
6054;DHT22;3055;50.886;14.814;2023-05-07T10:05:15;15.40;53.30
6054;DHT22;3055;50.886;14.814;2023-05-07T10:07:43;15.30;44.20
6054;DHT22;3055;50.886;14.814;2023-05-07T10:10:13;15.10;45.60
6054;DHT22;3055;50.886;14.814;2023-05-07T10:12:41;15.00;30.50
6054;DHT22;3055;50.886;14.814;2023-05-07T10:15:09;15.10;29.70
6054;DHT22;3055;50.886;14.814;2023-05-07T10:17:37;15.50;26.90
6054;DHT22;3055;50.886;14.814;2023-05-07T10:20:05;15.70;22.50
6054;DHT22;3055;50.886;14.814;2023-05-07T10:22:38;15.70;9.60
6054;DHT22;3055;50.886;14.814;2023-05-07T10:25:08;15.70;9.10
6054;DHT22;3055;50.886;14.814;2023-05-07T10:27:42;15.70;11.10
6054;DHT22;3055;50.886;14.814;2023-05-07T10:30:18;15.70;8.10
6054;DHT22;3055;50.886;14.814;2023-05-07T10:32:51;15.50;3.80
6054;DHT22;3055;50.886;14.814;2023-05-07T10:35:22;15.20;2.20
6054;DHT22;3055;50.886;14.814;2023-05-07T10:37:51;15.30;1.00
6054;DHT22;3055;50.886;14.814;2023-05-07T10:40:20;15.10;1.00
6054;DHT22;3055;50.886;14.814;2023-05-07T10:42:56;15.10;1.00
6054;DHT22;3055;50.886;14.814;2023-05-07T10:45:25;15.10;1.00
6054;DHT22;3055;50.886;14.814;2023-05-07T10:48:11;15.10;1.00
6054;DHT22;3055;50.886;14.814;2023-05-07T10:50:39;15.10;1.00
6054;DHT22;3055;50.886;14.814;2023-05-07T10:53:23;14.90;1.00
6054;DHT22;3055;50.886;14.814;2023-05-07T10:56:24;14.80;1.00
6054;DHT22;3055;50.886;14.814;2023-05-07T10:58:54;14.80;1.00
6054;DHT22;3055;50.886;14.814;2023-05-07T11:01:52;15.00;1.00
6054;DHT22;3055;50.886;14.814;2023-05-07T11:04:20;15.30;1.00
6054;DHT22;3055;50.886;14.814;2023-05-07T11:07:28;15.10;1.00
6054;DHT22;3055;50.886;14.814;2023-05-07T11:10:06;14.90;1.00
6054;DHT22;3055;50.886;14.814;2023-05-07T11:12:52;14.80;1.00
6054;DHT22;3055;50.886;14.814;2023-05-07T11:15:40;15.00;1.00
6054;DHT22;3055;50.886;14.814;2023-05-07T11:18:09;14.90;1.00
6054;DHT22;3055;50.886;14.814;2023-05-07T11:20:50;15.00;1.00
6054;DHT22;3055;50.886;14.814;2023-05-07T11:26:18;15.40;1.00
6054;DHT22;3055;50.886;14.814;2023-05-07T11:28:47;15.90;1.00
6054;DHT22;3055;50.886;14.814;2023-05-07T11:31:21;15.90;1.00
6054;DHT22;3055;50.886;14.814;2023-05-07T11:33:49;15.90;1.00
6054;DHT22;3055;50.886;14.814;2023-05-07T11:36:16;15.50;1.00
6054;DHT22;3055;50.886;14.814;2023-05-07T11:38:44;15.60;1.00
6054;DHT22;3055;50.886;14.814;2023-05-07T11:41:11;15.20;1.00
6054;DHT22;3055;50.886;14.814;2023-05-07T11:43:54;15.10;1.00
6054;DHT22;3055;50.886;14.814;2023-05-07T11:46:23;15.30;1.00
6054;DHT22;3055;50.886;14.814;2023-05-07T11:48:50;15.40;1.00
6054;DHT22;3055;50.886;14.814;2023-05-07T11:51:22;15.40;1.00
6054;DHT22;3055;50.886;14.814;2023-05-07T11:53:51;15.40;1.00
6054;DHT22;3055;50.886;14.814;2023-05-07T11:56:18;15.40;1.00
6054;DHT22;3055;50.886;14.814;2023-05-07T11:58:47;15.50;1.00
6054;DHT22;3055;50.886;14.814;2023-05-07T12:01:15;15.70;1.00
6054;DHT22;3055;50.886;14.814;2023-05-07T12:03:46;15.90;1.00
6054;DHT22;3055;50.886;14.814;2023-05-07T12:06:14;15.80;1.00
6054;DHT22;3055;50.886;14.814;2023-05-07T12:08:43;15.80;1.00
6054;DHT22;3055;50.886;14.814;2023-05-07T12:11:13;15.70;1.00
6054;DHT22;3055;50.886;14.814;2023-05-07T12:13:42;15.40;1.00
6054;DHT22;3055;50.886;14.814;2023-05-07T12:16:09;15.30;1.00
6054;DHT22;3055;50.886;14.814;2023-05-07T12:18:37;15.30;1.00
6054;DHT22;3055;50.886;14.814;2023-05-07T12:21:06;15.20;1.00
6054;DHT22;3055;50.886;14.814;2023-05-07T12:23:34;15.40;1.00
6054;DHT22;3055;50.886;14.814;2023-05-07T12:26:02;15.70;1.00
6054;DHT22;3055;50.886;14.814;2023-05-07T12:28:31;15.70;1.00
6054;DHT22;3055;50.886;14.814;2023-05-07T12:30:58;15.50;1.00
6054;DHT22;3055;50.886;14.814;2023-05-07T12:33:26;15.30;1.00
6054;DHT22;3055;50.886;14.814;2023-05-07T12:35:55;15.30;1.00
6054;DHT22;3055;50.886;14.814;2023-05-07T12:38:24;15.20;1.00
6054;DHT22;3055;50.886;14.814;2023-05-07T12:40:54;15.40;1.00
6054;DHT22;3055;50.886;14.814;2023-05-07T12:43:24;15.50;1.00
6054;DHT22;3055;50.886;14.814;2023-05-07T12:45:53;15.40;1.00
6054;DHT22;3055;50.886;14.814;2023-05-07T12:48:21;15.30;1.00
6054;DHT22;3055;50.886;14.814;2023-05-07T12:50:49;15.30;1.00
6054;DHT22;3055;50.886;14.814;2023-05-07T12:53:19;15.10;1.00
6054;DHT22;3055;50.886;14.814;2023-05-07T12:55:49;15.20;1.00
6054;DHT22;3055;50.886;14.814;2023-05-07T12:58:18;15.40;1.00
6054;DHT22;3055;50.886;14.814;2023-05-07T13:00:47;15.60;1.00
6054;DHT22;3055;50.886;14.814;2023-05-07T13:03:21;15.40;1.00
6054;DHT22;3055;50.886;14.814;2023-05-07T13:05:49;15.40;1.00
6054;DHT22;3055;50.886;14.814;2023-05-07T13:08:31;15.30;1.00
6054;DHT22;3055;50.886;14.814;2023-05-07T13:11:01;15.10;1.00
6054;DHT22;3055;50.886;14.814;2023-05-07T13:13:29;15.00;1.00
6054;DHT22;3055;50.886;14.814;2023-05-07T13:15:56;15.00;1.00
6054;DHT22;3055;50.886;14.814;2023-05-07T13:18:25;15.00;1.00
6054;DHT22;3055;50.886;14.814;2023-05-07T13:20:52;15.00;1.00
6054;DHT22;3055;50.886;14.814;2023-05-07T13:23:19;15.20;1.00
6054;DHT22;3055;50.886;14.814;2023-05-07T13:25:47;15.40;1.00
6054;DHT22;3055;50.886;14.814;2023-05-07T13:28:15;15.40;1.00
6054;DHT22;3055;50.886;14.814;2023-05-07T13:30:42;15.20;1.00
6054;DHT22;3055;50.886;14.814;2023-05-07T13:33:10;15.40;1.00
6054;DHT22;3055;50.886;14.814;2023-05-07T13:35:37;15.40;1.00
6054;DHT22;3055;50.886;14.814;2023-05-07T13:38:04;15.80;1.00
6054;DHT22;3055;50.886;14.814;2023-05-07T13:40:31;15.90;1.00
6054;DHT22;3055;50.886;14.814;2023-05-07T13:42:59;15.70;1.00
6054;DHT22;3055;50.886;14.814;2023-05-07T13:45:29;15.50;1.00
6054;DHT22;3055;50.886;14.814;2023-05-07T13:47:56;15.20;1.00
6054;DHT22;3055;50.886;14.814;2023-05-07T13:50:23;15.10;1.00
6054;DHT22;3055;50.886;14.814;2023-05-07T13:52:52;15.10;1.00
6054;DHT22;3055;50.886;14.814;2023-05-07T13:55:20;15.10;1.00
6054;DHT22;3055;50.886;14.814;2023-05-07T13:57:53;15.00;1.00
6054;DHT22;3055;50.886;14.814;2023-05-07T14:00:21;14.70;1.00
6054;DHT22;3055;50.886;14.814;2023-05-07T14:02:50;14.70;1.00
6054;DHT22;3055;50.886;14.814;2023-05-07T14:05:17;14.70;1.00
6054;DHT22;3055;50.886;14.814;2023-05-07T14:07:44;15.10;1.00
6054;DHT22;3055;50.886;14.814;2023-05-07T14:10:11;15.60;1.00
6054;DHT22;3055;50.886;14.814;2023-05-07T14:12:38;16.10;1.00
6054;DHT22;3055;50.886;14.814;2023-05-07T14:15:06;16.50;1.00
6054;DHT22;3055;50.886;14.814;2023-05-07T14:17:34;16.40;1.00
6054;DHT22;3055;50.886;14.814;2023-05-07T14:20:03;16.40;1.00
6054;DHT22;3055;50.886;14.814;2023-05-07T14:22:31;16.50;1.00
6054;DHT22;3055;50.886;14.814;2023-05-07T14:24:58;16.20;1.00
6054;DHT22;3055;50.886;14.814;2023-05-07T14:27:26;15.80;1.00
6054;DHT22;3055;50.886;14.814;2023-05-07T14:29:53;15.40;1.00
6054;DHT22;3055;50.886;14.814;2023-05-07T14:32:20;15.10;1.00
6054;DHT22;3055;50.886;14.814;2023-05-07T14:34:47;14.80;1.00
6054;DHT22;3055;50.886;14.814;2023-05-07T14:37:15;14.90;1.00
6054;DHT22;3055;50.886;14.814;2023-05-07T14:39:43;14.80;1.00
6054;DHT22;3055;50.886;14.814;2023-05-07T14:42:10;14.70;1.00
6054;DHT22;3055;50.886;14.814;2023-05-07T14:44:38;14.50;1.00
6054;DHT22;3055;50.886;14.814;2023-05-07T14:47:06;14.70;1.00
6054;DHT22;3055;50.886;14.814;2023-05-07T14:49:33;14.80;1.00
6054;DHT22;3055;50.886;14.814;2023-05-07T14:52:00;15.10;1.00
6054;DHT22;3055;50.886;14.814;2023-05-07T14:54:29;15.70;1.00
6054;DHT22;3055;50.886;14.814;2023-05-07T14:56:56;16.30;1.00
6054;DHT22;3055;50.886;14.814;2023-05-07T14:59:23;16.30;1.00
6054;DHT22;3055;50.886;14.814;2023-05-07T15:01:50;16.90;1.00
6054;DHT22;3055;50.886;14.814;2023-05-07T15:04:18;17.40;1.00
6054;DHT22;3055;50.886;14.814;2023-05-07T15:06:45;17.30;1.00
6054;DHT22;3055;50.886;14.814;2023-05-07T15:09:12;16.60;1.00
6054;DHT22;3055;50.886;14.814;2023-05-07T15:11:42;16.20;1.00
6054;DHT22;3055;50.886;14.814;2023-05-07T15:14:09;16.00;1.00
6054;DHT22;3055;50.886;14.814;2023-05-07T15:16:36;15.70;1.00
6054;DHT22;3055;50.886;14.814;2023-05-07T15:19:03;15.60;1.00
6054;DHT22;3055;50.886;14.814;2023-05-07T15:21:30;15.60;1.00
6054;DHT22;3055;50.886;14.814;2023-05-07T15:24:00;15.30;1.00
6054;DHT22;3055;50.886;14.814;2023-05-07T15:26:27;14.90;1.00
6054;DHT22;3055;50.886;14.814;2023-05-07T15:28:56;14.70;1.00
6054;DHT22;3055;50.886;14.814;2023-05-07T15:31:23;14.40;1.00
6054;DHT22;3055;50.886;14.814;2023-05-07T15:33:50;14.60;1.00
6054;DHT22;3055;50.886;14.814;2023-05-07T15:36:17;15.30;1.00
6054;DHT22;3055;50.886;14.814;2023-05-07T15:38:44;15.70;1.00
6054;DHT22;3055;50.886;14.814;2023-05-07T15:41:11;15.80;1.00
6054;DHT22;3055;50.886;14.814;2023-05-07T15:43:44;15.60;1.00
6054;DHT22;3055;50.886;14.814;2023-05-07T15:46:17;15.40;1.00
6054;DHT22;3055;50.886;14.814;2023-05-07T15:48:44;15.30;1.00
6054;DHT22;3055;50.886;14.814;2023-05-07T15:51:11;14.90;1.00
6054;DHT22;3055;50.886;14.814;2023-05-07T15:53:38;14.90;1.00
6054;DHT22;3055;50.886;14.814;2023-05-07T15:56:06;14.80;1.00
6054;DHT22;3055;50.886;14.814;2023-05-07T15:58:33;14.10;1.00
6054;DHT22;3055;50.886;14.814;2023-05-07T16:01:00;13.70;1.00
6054;DHT22;3055;50.886;14.814;2023-05-07T16:03:29;13.40;1.00
6054;DHT22;3055;50.886;14.814;2023-05-07T16:05:56;13.10;1.00
6054;DHT22;3055;50.886;14.814;2023-05-07T16:08:25;13.10;1.00
6054;DHT22;3055;50.886;14.814;2023-05-07T16:10:52;13.10;1.00